createdAt,value
2022-10-05T00:02:59.747Z,-63
2022-10-05T00:33:05.248Z,-65
2022-10-05T01:03:09.107Z,-64
2022-10-05T01:33:16.680Z,-63
2022-10-05T02:03:20.646Z,-62
2022-10-05T02:33:23.594Z,-63
2022-10-05T03:03:24.686Z,-62
2022-10-05T03:33:31.581Z,-62
2022-10-05T04:03:43.223Z,-62
2022-10-05T04:33:47.609Z,-62
2022-10-05T05:03:48.564Z,-61
2022-10-05T05:33:51.629Z,-60
2022-10-05T06:03:52.614Z,-61
2022-10-05T06:34:02.562Z,-61
2022-10-05T07:04:08.038Z,-61
2022-10-05T07:34:09.565Z,-62
2022-10-05T08:04:19.122Z,-63
2022-10-05T08:34:29.022Z,-63
2022-10-05T09:04:38.390Z,-64
2022-10-05T09:34:38.534Z,-63
2022-10-05T10:04:42.601Z,-63
2022-10-05T10:34:58.087Z,-63
2022-10-05T11:05:04.560Z,-62
2022-10-05T11:35:04.607Z,-62
2022-10-05T12:05:11.582Z,-60
2022-10-05T12:35:14.533Z,-61
2022-10-05T13:05:27.373Z,-62
2022-10-05T13:35:35.182Z,-62
2022-10-05T14:05:44.623Z,-62
2022-10-05T14:35:45.566Z,-60
2022-10-05T15:05:53.785Z,-63
2022-10-05T15:35:55.101Z,-61
2022-10-05T16:05:57.750Z,-60
2022-10-05T16:36:05.700Z,-60
2022-10-05T17:06:07.563Z,-60
2022-10-05T17:36:27.147Z,-60
2022-10-05T18:06:29.068Z,-59
2022-10-05T18:36:39.577Z,-58
2022-10-05T19:06:45.778Z,-60
2022-10-05T19:36:53.022Z,-59
2022-10-05T20:06:58.512Z,-60
2022-10-05T20:37:06.586Z,-60
2022-10-05T21:07:12.642Z,-60
2022-10-05T21:37:14.758Z,-61
2022-10-05T22:07:20.993Z,-60
2022-10-05T22:37:22.196Z,-61
2022-10-05T23:07:30.047Z,-60
2022-10-05T23:37:38.696Z,-60
